createdAt,value
2017-01-04T00:00:34.942Z,0
2017-01-04T00:01:15.411Z,0
2017-01-04T00:01:55.894Z,0
2017-01-04T00:02:36.387Z,0
2017-01-04T00:03:16.889Z,0
2017-01-04T00:03:57.387Z,0
2017-01-04T00:04:37.875Z,0
2017-01-04T00:05:18.355Z,0
2017-01-04T00:05:58.824Z,0
2017-01-04T00:06:39.300Z,0
2017-01-04T00:07:19.795Z,0
2017-01-04T00:08:00.275Z,0
2017-01-04T00:08:40.762Z,0
2017-01-04T00:09:21.260Z,0
2017-01-04T00:10:01.736Z,0
2017-01-04T00:10:42.194Z,0
2017-01-04T00:11:22.744Z,0
2017-01-04T00:12:03.167Z,0
2017-01-04T00:12:43.672Z,0
2017-01-04T00:13:24.179Z,0
2017-01-04T00:14:04.643Z,0
2017-01-04T00:14:45.132Z,0
2017-01-04T00:15:25.622Z,0
2017-01-04T00:16:06.086Z,0
2017-01-04T00:16:46.600Z,0
2017-01-04T00:17:27.063Z,0
2017-01-04T00:18:07.533Z,0
2017-01-04T00:18:48.045Z,0
2017-01-04T00:19:28.513Z,0
2017-01-04T00:20:09.000Z,0
2017-01-04T00:20:49.465Z,0
2017-01-04T00:21:29.939Z,0
2017-01-04T00:22:10.434Z,0
2017-01-04T00:22:50.927Z,0
2017-01-04T00:23:31.406Z,0
2017-01-04T00:24:11.860Z,0
2017-01-04T00:24:52.359Z,0
2017-01-04T00:25:32.848Z,0
2017-01-04T00:26:13.316Z,0
2017-01-04T00:26:53.812Z,0
2017-01-04T00:27:34.295Z,0
2017-01-04T00:28:14.860Z,0
2017-01-04T00:28:55.365Z,0
2017-01-04T00:29:35.853Z,0
2017-01-04T00:30:16.360Z,0
2017-01-04T00:30:56.833Z,0
2017-01-04T00:31:37.333Z,0
2017-01-04T00:32:17.828Z,0
2017-01-04T00:32:58.293Z,0
2017-01-04T00:33:38.768Z,0
2017-01-04T00:34:19.267Z,0
2017-01-04T00:34:59.742Z,0
2017-01-04T00:35:40.210Z,0
2017-01-04T00:36:20.715Z,0
2017-01-04T00:37:01.192Z,0
2017-01-04T00:37:41.670Z,0
2017-01-04T00:38:22.168Z,0
2017-01-04T00:39:02.646Z,0
2017-01-04T00:39:43.159Z,0
2017-01-04T00:40:23.628Z,0
2017-01-04T00:41:04.105Z,0
2017-01-04T00:41:44.611Z,0
2017-01-04T00:42:25.079Z,0
2017-01-04T00:43:05.536Z,0
2017-01-04T00:43:46.042Z,0
2017-01-04T00:44:26.522Z,0
2017-01-04T00:45:07.027Z,0
2017-01-04T00:45:47.526Z,0
2017-01-04T00:46:27.988Z,0
2017-01-04T00:47:08.443Z,0
2017-01-04T00:47:48.946Z,0
2017-01-04T00:48:29.414Z,0
2017-01-04T00:49:09.890Z,0
2017-01-04T00:49:50.369Z,0
2017-01-04T00:50:30.854Z,0
2017-01-04T00:51:11.325Z,0
2017-01-04T00:51:51.823Z,0
2017-01-04T00:52:32.309Z,0
2017-01-04T00:53:12.810Z,0
2017-01-04T00:53:53.294Z,0
2017-01-04T00:54:33.773Z,0
2017-01-04T00:55:14.285Z,0
2017-01-04T00:55:54.753Z,0
2017-01-04T00:56:35.252Z,0
2017-01-04T00:57:15.736Z,0
2017-01-04T00:57:56.215Z,0
2017-01-04T00:58:36.720Z,0
2017-01-04T00:59:17.205Z,0
2017-01-04T00:59:57.693Z,0
2017-01-04T01:00:38.192Z,0
2017-01-04T01:01:18.664Z,0
2017-01-04T01:01:59.129Z,0
2017-01-04T01:02:39.611Z,0
2017-01-04T01:03:20.092Z,0
2017-01-04T01:04:00.585Z,0
2017-01-04T01:04:41.097Z,0
2017-01-04T01:05:21.590Z,0
2017-01-04T01:06:02.125Z,0
2017-01-04T01:06:42.637Z,0
2017-01-04T01:07:23.103Z,0
2017-01-04T01:08:03.590Z,0
2017-01-04T01:08:44.066Z,0
2017-01-04T01:09:24.567Z,0
2017-01-04T01:10:05.065Z,0
2017-01-04T01:10:45.564Z,0
2017-01-04T01:11:26.020Z,0
2017-01-04T01:12:06.529Z,0
2017-01-04T01:12:47.003Z,0
2017-01-04T01:13:27.499Z,0
2017-01-04T01:14:07.973Z,0
2017-01-04T01:14:48.441Z,0
2017-01-04T01:15:28.950Z,0
2017-01-04T01:16:09.436Z,0
2017-01-04T01:16:49.938Z,0
2017-01-04T01:17:30.426Z,0
2017-01-04T01:18:10.912Z,0
2017-01-04T01:18:51.430Z,0
2017-01-04T01:19:31.880Z,0
2017-01-04T01:20:12.380Z,0
2017-01-04T01:20:52.904Z,0
2017-01-04T01:21:33.417Z,0
2017-01-04T01:22:13.993Z,0
2017-01-04T01:22:54.456Z,0
2017-01-04T01:23:34.946Z,0
2017-01-04T01:24:15.437Z,0
2017-01-04T01:24:55.931Z,0
2017-01-04T01:25:36.428Z,0
2017-01-04T01:26:16.883Z,0
2017-01-04T01:26:57.379Z,0
2017-01-04T01:27:37.895Z,0
2017-01-04T01:28:18.389Z,0
2017-01-04T01:28:58.866Z,0
2017-01-04T01:29:39.385Z,0
2017-01-04T01:30:19.859Z,0
2017-01-04T01:31:00.336Z,0
2017-01-04T01:31:40.833Z,0
2017-01-04T01:32:21.312Z,0
2017-01-04T01:33:01.792Z,0
2017-01-04T01:33:42.310Z,0
2017-01-04T01:34:22.761Z,0
2017-01-04T01:35:03.269Z,0
2017-01-04T01:35:43.774Z,0
2017-01-04T01:36:24.254Z,0
2017-01-04T01:37:04.726Z,0
2017-01-04T01:37:45.206Z,0
2017-01-04T01:38:25.697Z,0
2017-01-04T01:39:06.181Z,0
2017-01-04T01:39:46.677Z,0
2017-01-04T01:40:27.146Z,0
2017-01-04T01:41:07.631Z,0
2017-01-04T01:41:48.112Z,0
2017-01-04T01:42:28.608Z,0
2017-01-04T01:43:09.123Z,0
2017-01-04T01:43:49.581Z,0
2017-01-04T01:44:30.084Z,0
2017-01-04T01:45:10.560Z,0
2017-01-04T01:45:51.038Z,0
2017-01-04T01:46:31.519Z,0
2017-01-04T01:47:11.990Z,0
2017-01-04T01:47:52.463Z,0
2017-01-04T01:48:32.963Z,0
2017-01-04T01:49:13.438Z,0
2017-01-04T01:49:53.892Z,0
2017-01-04T01:50:34.420Z,0
2017-01-04T01:51:14.876Z,0
2017-01-04T01:51:55.354Z,0
2017-01-04T01:52:35.864Z,0
2017-01-04T01:53:16.320Z,0
2017-01-04T01:53:56.820Z,0
2017-01-04T01:54:37.326Z,0
2017-01-04T01:55:17.792Z,0
2017-01-04T01:55:58.365Z,0
2017-01-04T01:56:38.861Z,0
2017-01-04T01:57:19.342Z,0
2017-01-04T01:57:59.824Z,0
2017-01-04T01:58:40.302Z,0
2017-01-04T01:59:20.792Z,0
2017-01-04T02:00:01.272Z,0
2017-01-04T02:00:41.767Z,0
2017-01-04T02:01:22.259Z,0
2017-01-04T02:02:02.723Z,0
2017-01-04T02:02:43.271Z,0
2017-01-04T02:03:23.750Z,0
2017-01-04T02:04:04.230Z,0
2017-01-04T02:04:44.718Z,0
2017-01-04T02:05:25.199Z,0
2017-01-04T02:06:05.678Z,0
2017-01-04T02:06:46.150Z,0
2017-01-04T02:07:26.635Z,0
2017-01-04T02:08:07.120Z,0
2017-01-04T02:08:47.614Z,0
2017-01-04T02:09:28.111Z,0
2017-01-04T02:10:08.583Z,0
2017-01-04T02:10:49.072Z,0
2017-01-04T02:11:29.566Z,0
2017-01-04T02:12:10.075Z,0
2017-01-04T02:12:50.561Z,0
2017-01-04T02:13:31.039Z,0
2017-01-04T02:14:11.558Z,0
2017-01-04T02:14:52.032Z,0
2017-01-04T02:15:32.532Z,0
2017-01-04T02:16:13.070Z,0
2017-01-04T02:16:53.546Z,0
2017-01-04T02:17:34.031Z,0
2017-01-04T02:18:14.528Z,0
2017-01-04T02:18:55.017Z,0
2017-01-04T02:19:35.500Z,0
2017-01-04T02:20:15.986Z,0
2017-01-04T02:20:56.479Z,0
2017-01-04T02:21:36.977Z,0
2017-01-04T02:22:17.500Z,0
2017-01-04T02:22:57.971Z,0
2017-01-04T02:23:38.471Z,0
2017-01-04T02:24:18.982Z,0
2017-01-04T02:24:59.457Z,0
2017-01-04T02:25:39.963Z,0
2017-01-04T02:26:20.433Z,0
2017-01-04T02:27:00.921Z,0
2017-01-04T02:27:41.432Z,0
2017-01-04T02:28:21.894Z,0
2017-01-04T02:29:04.326Z,0
2017-01-04T02:29:44.815Z,0
2017-01-04T02:30:25.306Z,0
2017-01-04T02:31:05.787Z,0
2017-01-04T02:31:46.265Z,0
2017-01-04T02:32:26.732Z,0
2017-01-04T02:33:07.247Z,0
2017-01-04T02:33:47.744Z,0
2017-01-04T02:34:28.196Z,0
2017-01-04T02:35:08.681Z,0
2017-01-04T02:35:49.194Z,0
2017-01-04T02:36:29.667Z,0
2017-01-04T02:37:10.141Z,0
2017-01-04T02:37:50.624Z,0
2017-01-04T02:38:31.128Z,0
2017-01-04T02:39:11.594Z,0
2017-01-04T02:39:52.089Z,0
2017-01-04T02:40:32.566Z,0
2017-01-04T02:41:13.118Z,0
2017-01-04T02:41:53.575Z,0
2017-01-04T02:42:34.062Z,0
2017-01-04T02:43:14.542Z,0
2017-01-04T02:43:55.003Z,0
2017-01-04T02:44:35.508Z,0
2017-01-04T02:45:15.975Z,0
2017-01-04T02:45:56.455Z,0
2017-01-04T02:46:36.930Z,0
2017-01-04T02:47:17.411Z,0
2017-01-04T02:47:57.870Z,0
2017-01-04T02:48:38.353Z,0
2017-01-04T02:49:18.859Z,0
2017-01-04T02:49:59.334Z,0
2017-01-04T02:50:39.837Z,0
2017-01-04T02:51:20.315Z,0
2017-01-04T02:52:00.812Z,0
2017-01-04T02:52:41.322Z,0
2017-01-04T02:53:21.764Z,0
2017-01-04T02:54:02.251Z,0
2017-01-04T02:54:42.767Z,0
2017-01-04T02:55:23.249Z,0
2017-01-04T02:56:03.738Z,0
2017-01-04T02:56:44.207Z,0
2017-01-04T02:57:24.696Z,0
2017-01-04T02:58:05.169Z,0
2017-01-04T02:58:45.658Z,0
2017-01-04T02:59:26.148Z,0
2017-01-04T03:00:06.640Z,0
2017-01-04T03:00:49.637Z,0
2017-01-04T03:01:30.116Z,0
2017-01-04T03:02:10.604Z,0
2017-01-04T03:02:51.103Z,0
2017-01-04T03:03:31.586Z,0
2017-01-04T03:04:12.085Z,0
2017-01-04T03:04:52.559Z,0
2017-01-04T03:05:33.036Z,0
2017-01-04T03:06:13.540Z,0
2017-01-04T03:06:54.025Z,0
2017-01-04T03:07:34.496Z,0
2017-01-04T03:08:14.984Z,0
2017-01-04T03:08:55.459Z,0
2017-01-04T03:09:35.931Z,0
2017-01-04T03:10:16.422Z,0
2017-01-04T03:10:56.913Z,0
2017-01-04T03:11:37.394Z,0
2017-01-04T03:12:17.887Z,0
2017-01-04T03:12:58.366Z,0
2017-01-04T03:13:38.837Z,0
2017-01-04T03:14:19.317Z,0
2017-01-04T03:14:59.824Z,0
2017-01-04T03:15:40.318Z,0
2017-01-04T03:16:20.795Z,0
2017-01-04T03:17:01.291Z,0
2017-01-04T03:17:41.788Z,0
2017-01-04T03:18:22.270Z,0
2017-01-04T03:19:02.749Z,0
2017-01-04T03:19:43.243Z,0
2017-01-04T03:20:23.724Z,0
2017-01-04T03:21:04.227Z,0
2017-01-04T03:21:44.713Z,0
2017-01-04T03:22:25.182Z,0
2017-01-04T03:23:05.669Z,0
2017-01-04T03:23:46.142Z,0
2017-01-04T03:24:26.615Z,0
2017-01-04T03:25:07.107Z,0
2017-01-04T03:25:47.590Z,0
2017-01-04T03:26:28.163Z,0
2017-01-04T03:27:08.652Z,0
2017-01-04T03:27:49.148Z,0
2017-01-04T03:28:29.660Z,0
2017-01-04T03:29:10.143Z,0
2017-01-04T03:29:50.660Z,0
2017-01-04T03:30:31.113Z,0
2017-01-04T03:31:11.579Z,0
2017-01-04T03:31:52.113Z,0
2017-01-04T03:32:32.600Z,0
2017-01-04T03:33:13.099Z,0
2017-01-04T03:33:53.583Z,0
2017-01-04T03:34:34.082Z,0
2017-01-04T03:35:14.579Z,0
2017-01-04T03:35:55.040Z,0
2017-01-04T03:36:35.541Z,0
2017-01-04T03:37:16.019Z,0
2017-01-04T03:37:56.486Z,0
2017-01-04T03:38:36.964Z,0
2017-01-04T03:39:17.458Z,0
2017-01-04T03:39:57.931Z,0
2017-01-04T03:40:38.430Z,0
2017-01-04T03:41:18.904Z,0
2017-01-04T03:41:59.388Z,0
2017-01-04T03:42:39.881Z,0
2017-01-04T03:43:20.371Z,0
2017-01-04T03:44:00.855Z,0
2017-01-04T03:44:41.342Z,0
2017-01-04T03:45:21.817Z,0
2017-01-04T03:46:02.320Z,0
2017-01-04T03:46:42.804Z,0
2017-01-04T03:47:23.310Z,0
2017-01-04T03:48:03.794Z,0
2017-01-04T03:48:44.269Z,0
2017-01-04T03:49:24.746Z,0
2017-01-04T03:50:05.257Z,0
2017-01-04T03:50:45.724Z,0
2017-01-04T03:51:26.218Z,0
2017-01-04T03:52:06.703Z,0
2017-01-04T03:52:47.194Z,0
2017-01-04T03:53:27.674Z,0
2017-01-04T03:54:08.179Z,0
2017-01-04T03:54:48.641Z,0
2017-01-04T03:55:29.141Z,0
2017-01-04T03:56:09.598Z,0
2017-01-04T03:56:50.076Z,0
2017-01-04T03:57:30.547Z,0
2017-01-04T03:58:11.037Z,0
2017-01-04T03:58:51.520Z,0
2017-01-04T03:59:32.022Z,0
2017-01-04T04:00:12.500Z,0
2017-01-04T04:00:53.052Z,0
2017-01-04T04:01:33.497Z,0
2017-01-04T04:02:13.944Z,0
2017-01-04T04:02:54.447Z,0
2017-01-04T04:03:34.938Z,0
2017-01-04T04:04:15.421Z,0
2017-01-04T04:04:55.902Z,0
2017-01-04T04:05:36.392Z,0
2017-01-04T04:06:16.872Z,0
2017-01-04T04:06:57.375Z,0
2017-01-04T04:07:37.876Z,0
2017-01-04T04:08:18.340Z,0
2017-01-04T04:08:58.818Z,0
2017-01-04T04:09:39.300Z,0
2017-01-04T04:10:19.783Z,0
2017-01-04T04:11:00.253Z,0
2017-01-04T04:11:40.736Z,0
2017-01-04T04:12:21.219Z,0
2017-01-04T04:13:01.709Z,0
2017-01-04T04:13:42.193Z,0
2017-01-04T04:14:22.663Z,0
2017-01-04T04:15:03.154Z,0
2017-01-04T04:15:43.653Z,0
2017-01-04T04:16:24.138Z,0
2017-01-04T04:17:04.588Z,0
2017-01-04T04:17:45.092Z,0
2017-01-04T04:18:25.567Z,0
2017-01-04T04:19:06.084Z,0
2017-01-04T04:19:46.557Z,0
2017-01-04T04:20:27.020Z,0
2017-01-04T04:21:07.517Z,0
2017-01-04T04:21:47.969Z,0
2017-01-04T04:22:28.478Z,0
2017-01-04T04:23:08.963Z,0
2017-01-04T04:23:49.461Z,0
2017-01-04T04:24:29.947Z,0
2017-01-04T04:25:10.431Z,0
2017-01-04T04:25:50.894Z,0
2017-01-04T04:26:31.429Z,0
2017-01-04T04:27:11.900Z,0
2017-01-04T04:27:52.398Z,0
2017-01-04T04:28:32.896Z,0
2017-01-04T04:29:13.400Z,0
2017-01-04T04:29:53.872Z,0
2017-01-04T04:30:34.363Z,0
2017-01-04T04:31:14.833Z,0
2017-01-04T04:31:55.318Z,0
2017-01-04T04:32:35.796Z,0
2017-01-04T04:33:16.280Z,0
2017-01-04T04:33:56.781Z,0
2017-01-04T04:34:37.232Z,0
2017-01-04T04:35:17.730Z,0
2017-01-04T04:35:58.259Z,0
2017-01-04T04:36:38.755Z,0
2017-01-04T04:37:19.243Z,0
2017-01-04T04:37:59.740Z,0
2017-01-04T04:38:40.207Z,0
2017-01-04T04:39:20.694Z,0
2017-01-04T04:40:01.190Z,0
2017-01-04T04:40:41.664Z,0
2017-01-04T04:41:22.145Z,0
2017-01-04T04:42:02.658Z,0
2017-01-04T04:42:43.141Z,0
2017-01-04T04:43:23.648Z,0
2017-01-04T04:44:04.104Z,0
2017-01-04T04:44:44.587Z,0
2017-01-04T04:45:25.063Z,0
2017-01-04T04:46:07.127Z,0
2017-01-04T04:46:47.634Z,0
2017-01-04T04:47:28.100Z,0
2017-01-04T04:48:08.600Z,0
2017-01-04T04:48:49.091Z,0
2017-01-04T04:49:29.568Z,0
2017-01-04T04:50:10.134Z,0
2017-01-04T04:50:50.613Z,0
2017-01-04T04:51:31.088Z,0
2017-01-04T04:52:11.579Z,0
2017-01-04T04:52:52.065Z,0
2017-01-04T04:53:32.517Z,0
2017-01-04T04:54:12.995Z,0
2017-01-04T04:54:53.509Z,0
2017-01-04T04:55:33.977Z,0
2017-01-04T04:56:14.448Z,0
2017-01-04T04:56:54.933Z,0
2017-01-04T04:57:35.418Z,0
2017-01-04T04:58:15.901Z,0
2017-01-04T04:58:56.391Z,0
2017-01-04T04:59:36.879Z,0
2017-01-04T05:00:17.379Z,0
2017-01-04T05:00:57.849Z,0
2017-01-04T05:01:38.421Z,0
2017-01-04T05:02:18.870Z,0
2017-01-04T05:02:59.375Z,0
2017-01-04T05:03:39.850Z,0
2017-01-04T05:04:20.342Z,0
2017-01-04T05:05:00.856Z,0
2017-01-04T05:05:41.337Z,0
2017-01-04T05:06:21.811Z,0
2017-01-04T05:07:02.307Z,0
2017-01-04T05:07:42.791Z,0
2017-01-04T05:08:23.296Z,0
2017-01-04T05:09:03.777Z,0
2017-01-04T05:09:44.244Z,0
2017-01-04T05:10:24.728Z,0
2017-01-04T05:11:05.256Z,0
2017-01-04T05:11:45.714Z,0
2017-01-04T05:12:26.213Z,0
2017-01-04T05:13:06.728Z,0
2017-01-04T05:13:47.203Z,0
2017-01-04T05:14:27.696Z,0
2017-01-04T05:15:08.194Z,0
2017-01-04T05:15:48.757Z,0
2017-01-04T05:16:29.215Z,0
2017-01-04T05:17:09.688Z,0
2017-01-04T05:17:50.190Z,0
2017-01-04T05:18:30.711Z,0
2017-01-04T05:19:11.204Z,0
2017-01-04T05:19:51.757Z,0
2017-01-04T05:20:32.246Z,0
2017-01-04T05:21:12.762Z,0
2017-01-04T05:21:53.262Z,0
2017-01-04T05:22:33.778Z,0
2017-01-04T05:23:14.313Z,0
2017-01-04T05:23:54.798Z,0
2017-01-04T05:24:35.289Z,0
2017-01-04T05:25:15.796Z,0
2017-01-04T05:25:56.322Z,0
2017-01-04T05:26:36.828Z,0
2017-01-04T05:27:17.298Z,0
2017-01-04T05:27:57.847Z,0
2017-01-04T05:28:44.843Z,0
2017-01-04T05:29:25.310Z,0
2017-01-04T05:30:05.845Z,0
2017-01-04T05:30:46.351Z,0
2017-01-04T05:31:26.844Z,0
2017-01-04T05:32:07.873Z,0
2017-01-04T05:32:48.365Z,0
2017-01-04T05:33:28.866Z,0
2017-01-04T05:34:09.332Z,0
2017-01-04T05:34:49.830Z,0
2017-01-04T05:35:30.290Z,0
2017-01-04T05:36:10.762Z,0
2017-01-04T05:36:51.256Z,0
2017-01-04T05:37:31.759Z,0
2017-01-04T05:38:12.272Z,0
2017-01-04T05:38:52.773Z,0
2017-01-04T05:39:33.432Z,0
2017-01-04T05:40:13.907Z,0
2017-01-04T05:40:54.379Z,0
2017-01-04T05:41:35.004Z,0
2017-01-04T05:42:15.489Z,0
2017-01-04T05:42:55.981Z,0
2017-01-04T05:43:36.460Z,0
2017-01-04T05:44:17.062Z,0
2017-01-04T05:44:57.478Z,0
2017-01-04T05:45:37.942Z,0
2017-01-04T05:46:18.558Z,0
2017-01-04T05:46:59.156Z,0
2017-01-04T05:47:39.654Z,0
2017-01-04T05:48:20.131Z,0
2017-01-04T05:49:00.620Z,0
2017-01-04T05:49:41.107Z,0
2017-01-04T05:50:21.596Z,0
2017-01-04T05:51:02.066Z,0
2017-01-04T05:51:42.546Z,0
2017-01-04T05:52:23.035Z,0
2017-01-04T05:53:03.556Z,0
2017-01-04T05:53:44.077Z,0
2017-01-04T05:54:24.549Z,0
2017-01-04T05:55:05.040Z,0
2017-01-04T05:55:45.537Z,0
2017-01-04T05:56:26.011Z,0
2017-01-04T05:57:06.628Z,0
2017-01-04T05:57:47.093Z,0
2017-01-04T05:58:27.618Z,0
2017-01-04T05:59:08.105Z,0
2017-01-04T05:59:48.625Z,0
2017-01-04T06:00:29.098Z,0
2017-01-04T06:01:09.577Z,0
2017-01-04T06:01:50.059Z,0
2017-01-04T06:02:30.557Z,0
2017-01-04T06:03:11.046Z,0
2017-01-04T06:03:51.560Z,0
2017-01-04T06:04:32.049Z,0
2017-01-04T06:05:12.547Z,0
2017-01-04T06:05:53.030Z,0
2017-01-04T06:06:33.507Z,0
2017-01-04T06:07:13.988Z,0
2017-01-04T06:07:54.483Z,0
2017-01-04T06:08:34.981Z,0
2017-01-04T06:09:15.479Z,0
2017-01-04T06:09:55.943Z,0
2017-01-04T06:10:36.471Z,0
2017-01-04T06:11:16.997Z,0
2017-01-04T06:11:57.508Z,0
2017-01-04T06:12:38.006Z,0
2017-01-04T06:13:18.483Z,0
2017-01-04T06:13:59.005Z,0
2017-01-04T06:14:39.558Z,0
2017-01-04T06:15:20.080Z,0
2017-01-04T06:16:00.575Z,0
2017-01-04T06:16:41.095Z,0
2017-01-04T06:17:21.599Z,0
2017-01-04T06:18:02.127Z,0
2017-01-04T06:18:42.605Z,0
2017-01-04T06:19:23.088Z,0
2017-01-04T06:20:03.614Z,0
2017-01-04T06:20:44.088Z,0
2017-01-04T06:21:24.585Z,0
2017-01-04T06:22:05.060Z,0
2017-01-04T06:22:45.553Z,0
2017-01-04T06:23:26.033Z,0
2017-01-04T06:24:06.516Z,0
2017-01-04T06:24:47.000Z,0
2017-01-04T06:25:27.480Z,0
2017-01-04T06:26:07.978Z,0
2017-01-04T06:26:48.477Z,0
2017-01-04T06:27:28.987Z,0
2017-01-04T06:28:09.458Z,0
2017-01-04T06:28:49.960Z,0
2017-01-04T06:29:30.424Z,0
2017-01-04T06:30:10.904Z,0
2017-01-04T06:30:51.385Z,0
2017-01-04T06:31:31.869Z,0
2017-01-04T06:32:12.371Z,0
2017-01-04T06:32:52.872Z,0
2017-01-04T06:33:33.332Z,0
2017-01-04T06:34:13.837Z,0
2017-01-04T06:34:54.331Z,0
2017-01-04T06:35:34.831Z,0
2017-01-04T06:36:15.341Z,0
2017-01-04T06:36:55.836Z,0
2017-01-04T06:37:36.424Z,0
2017-01-04T06:38:16.952Z,0
2017-01-04T06:38:57.433Z,0
2017-01-04T06:39:37.924Z,0
2017-01-04T06:40:18.414Z,0
2017-01-04T06:40:58.944Z,0
2017-01-04T06:41:39.438Z,0
2017-01-04T06:42:19.912Z,0
2017-01-04T06:43:00.416Z,0
2017-01-04T06:43:40.900Z,0
2017-01-04T06:44:21.402Z,0
2017-01-04T06:45:01.877Z,0
2017-01-04T06:45:42.349Z,0
2017-01-04T06:46:22.855Z,0
2017-01-04T06:47:03.345Z,0
2017-01-04T06:47:43.814Z,0
2017-01-04T06:48:24.343Z,0
2017-01-04T06:49:05.586Z,0
2017-01-04T06:49:46.103Z,0
2017-01-04T06:50:26.569Z,0
2017-01-04T06:51:07.068Z,0
2017-01-04T06:51:47.600Z,0
2017-01-04T06:52:28.136Z,0
2017-01-04T06:53:09.109Z,0
2017-01-04T06:53:49.644Z,0
2017-01-04T06:54:30.251Z,0
2017-01-04T06:55:10.700Z,0
2017-01-04T06:55:51.206Z,0
2017-01-04T06:56:31.714Z,0
2017-01-04T06:57:12.199Z,0
2017-01-04T06:57:52.704Z,0
2017-01-04T06:58:33.202Z,0
2017-01-04T06:59:13.798Z,0
2017-01-04T06:59:54.305Z,0
2017-01-04T07:00:34.857Z,0
2017-01-04T07:01:15.356Z,0
2017-01-04T07:01:55.872Z,0
2017-01-04T07:02:36.374Z,0
2017-01-04T07:03:16.872Z,0
2017-01-04T07:03:57.354Z,0
2017-01-04T07:04:37.856Z,0
2017-01-04T07:05:18.333Z,0
2017-01-04T07:05:58.818Z,0
2017-01-04T07:06:39.297Z,0
2017-01-04T07:07:19.793Z,0
2017-01-04T07:08:00.281Z,0
2017-01-04T07:08:40.779Z,4
2017-01-04T07:09:21.259Z,4
2017-01-04T07:10:01.766Z,0
2017-01-04T07:10:42.270Z,0
2017-01-04T07:11:22.719Z,4
2017-01-04T07:12:03.204Z,4
2017-01-04T07:12:43.792Z,4
2017-01-04T07:13:24.277Z,4
2017-01-04T07:14:04.810Z,4
2017-01-04T07:14:45.316Z,4
2017-01-04T07:15:25.803Z,4
2017-01-04T07:16:06.300Z,8
2017-01-04T07:16:46.801Z,4
2017-01-04T07:17:27.277Z,4
2017-01-04T07:20:06.846Z,8
2017-01-04T07:20:47.349Z,8
2017-01-04T07:21:27.867Z,12
2017-01-04T07:22:08.385Z,8
2017-01-04T07:22:48.863Z,12
2017-01-04T07:23:29.443Z,12
2017-01-04T07:24:09.902Z,16
2017-01-04T07:24:50.567Z,12
2017-01-04T07:25:31.000Z,16
2017-01-04T07:26:11.500Z,20
2017-01-04T07:26:51.959Z,24
2017-01-04T07:27:32.467Z,28
2017-01-04T07:28:12.969Z,32
2017-01-04T07:28:53.441Z,32
2017-01-04T07:29:33.926Z,36
2017-01-04T07:30:14.517Z,44
2017-01-04T07:30:55.014Z,48
2017-01-04T07:31:35.467Z,56
2017-01-04T07:32:15.956Z,64
2017-01-04T07:32:56.442Z,64
2017-01-04T07:33:36.916Z,68
2017-01-04T07:34:17.402Z,72
2017-01-04T07:34:57.929Z,80
2017-01-04T07:35:38.420Z,76
2017-01-04T07:36:18.923Z,80
2017-01-04T07:36:59.413Z,84
2017-01-04T07:37:39.957Z,84
2017-01-04T07:38:20.398Z,84
2017-01-04T07:39:00.904Z,88
2017-01-04T07:39:41.384Z,96
2017-01-04T07:40:21.876Z,96
2017-01-04T07:41:02.381Z,92
2017-01-04T07:41:42.873Z,80
2017-01-04T07:42:23.397Z,80
2017-01-04T07:43:03.908Z,88
2017-01-04T07:43:44.383Z,108
2017-01-04T07:44:24.853Z,128
2017-01-04T07:45:05.364Z,136
2017-01-04T07:45:45.813Z,136
2017-01-04T07:46:26.308Z,136
2017-01-04T07:47:06.758Z,176
2017-01-04T07:47:47.243Z,228
2017-01-04T07:48:27.753Z,248
2017-01-04T07:49:08.256Z,272
2017-01-04T07:49:48.747Z,304
2017-01-04T07:50:29.252Z,348
2017-01-04T07:51:09.721Z,400
2017-01-04T07:51:50.207Z,456
2017-01-04T07:52:30.892Z,504
2017-01-04T07:53:11.390Z,544
2017-01-04T07:53:51.859Z,564
2017-01-04T07:54:32.350Z,548
2017-01-04T07:55:12.850Z,532
2017-01-04T07:55:53.393Z,508
2017-01-04T07:56:33.867Z,476
2017-01-04T07:57:14.391Z,436
2017-01-04T07:57:54.843Z,396
2017-01-04T07:58:35.385Z,360
2017-01-04T07:59:15.885Z,284
2017-01-04T07:59:56.385Z,236
2017-01-04T08:00:36.916Z,192
2017-01-04T08:01:17.435Z,140
2017-01-04T08:01:57.911Z,92
2017-01-04T08:02:38.622Z,68
2017-01-04T08:03:19.636Z,56
2017-01-04T08:04:00.077Z,44
2017-01-04T08:04:40.617Z,40
2017-01-04T08:05:21.345Z,48
2017-01-04T08:06:02.703Z,52
2017-01-04T08:06:43.305Z,64
2017-01-04T08:07:23.897Z,80
2017-01-04T08:08:04.402Z,112
2017-01-04T08:08:44.873Z,152
2017-01-04T08:09:25.418Z,248
2017-01-04T08:10:06.235Z,284
2017-01-04T08:10:46.906Z,328
2017-01-04T08:11:27.430Z,376
2017-01-04T08:12:07.936Z,384
2017-01-04T08:12:48.418Z,360
2017-01-04T08:13:28.953Z,376
2017-01-04T08:14:09.454Z,376
2017-01-04T08:14:50.831Z,352
2017-01-04T08:15:31.632Z,308
2017-01-04T08:16:12.302Z,244
2017-01-04T08:16:52.801Z,240
2017-01-04T08:17:33.282Z,252
2017-01-04T08:18:13.843Z,288
2017-01-04T08:18:54.336Z,344
2017-01-04T08:19:34.887Z,396
2017-01-04T08:20:15.366Z,456
2017-01-04T08:20:56.232Z,492
2017-01-04T08:21:36.679Z,520
2017-01-04T08:22:17.144Z,580
2017-01-04T08:22:57.665Z,628
2017-01-04T08:23:38.158Z,640
2017-01-04T08:24:18.684Z,700
2017-01-04T08:24:59.172Z,748
2017-01-04T08:25:39.685Z,780
2017-01-04T08:26:20.176Z,820
2017-01-04T08:27:01.596Z,828
2017-01-04T08:27:42.057Z,864
2017-01-04T08:28:22.609Z,908
2017-01-04T08:29:03.075Z,976
2017-01-04T08:29:43.575Z,1012
2017-01-04T08:30:24.077Z,1052
2017-01-04T08:31:04.563Z,1112
2017-01-04T08:31:45.077Z,1168
2017-01-04T08:32:25.592Z,1240
2017-01-04T08:33:06.137Z,1324
2017-01-04T08:33:46.672Z,1384
2017-01-04T08:34:27.153Z,1444
2017-01-04T08:35:07.655Z,1576
2017-01-04T08:35:48.130Z,1724
2017-01-04T08:36:28.633Z,1756
2017-01-04T08:37:09.119Z,1712
2017-01-04T08:37:49.617Z,1676
2017-01-04T08:38:30.098Z,1480
2017-01-04T08:39:10.618Z,1316
2017-01-04T08:39:51.065Z,1204
2017-01-04T08:40:31.593Z,1368
2017-01-04T08:41:12.095Z,1636
2017-01-04T08:41:52.576Z,1408
2017-01-04T08:42:33.669Z,940
2017-01-04T08:43:14.205Z,1088
2017-01-04T08:43:54.690Z,1324
2017-01-04T08:44:35.220Z,1392
2017-01-04T08:45:15.701Z,1316
2017-01-04T08:45:56.192Z,1248
2017-01-04T08:46:36.736Z,1276
2017-01-04T08:47:17.218Z,1436
2017-01-04T08:47:57.789Z,1492
2017-01-04T08:48:38.448Z,1492
2017-01-04T08:49:18.925Z,1584
2017-01-04T08:49:59.466Z,1712
2017-01-04T08:50:39.967Z,1808
2017-01-04T08:51:20.470Z,1756
2017-01-04T08:52:01.029Z,1740
2017-01-04T08:52:41.572Z,1680
2017-01-04T08:53:22.069Z,1604
2017-01-04T08:54:02.562Z,1584
2017-01-04T08:54:43.166Z,1620
2017-01-04T08:55:23.614Z,1652
2017-01-04T08:56:04.087Z,1724
2017-01-04T08:56:44.575Z,1852
2017-01-04T08:57:25.056Z,2060
2017-01-04T08:58:05.551Z,2356
2017-01-04T08:58:46.051Z,2608
2017-01-04T08:59:27.941Z,2656
2017-01-04T09:00:08.471Z,2524
2017-01-04T09:00:48.950Z,2264
2017-01-04T09:01:29.443Z,1968
2017-01-04T09:02:09.921Z,1972
2017-01-04T09:02:50.376Z,1988
2017-01-04T09:03:30.942Z,2008
2017-01-04T09:04:11.433Z,2060
2017-01-04T09:04:51.930Z,2128
2017-01-04T09:05:32.432Z,2180
2017-01-04T09:06:12.948Z,2192
2017-01-04T09:06:53.464Z,2124
2017-01-04T09:07:33.964Z,2072
2017-01-04T09:08:14.621Z,2040
2017-01-04T09:08:55.219Z,2036
2017-01-04T09:09:35.714Z,2032
2017-01-04T09:10:16.221Z,2024
2017-01-04T09:10:56.688Z,2032
2017-01-04T09:11:37.175Z,2032
2017-01-04T09:12:17.679Z,2040
2017-01-04T09:12:58.152Z,2056
2017-01-04T09:13:38.684Z,2064
2017-01-04T09:14:19.217Z,2076
2017-01-04T09:14:59.739Z,2088
2017-01-04T09:15:40.243Z,2088
2017-01-04T09:18:08.783Z,2124
2017-01-04T09:18:49.227Z,2124
2017-01-04T09:19:29.688Z,2140
2017-01-04T09:20:10.220Z,2148
2017-01-04T09:20:50.693Z,2156
2017-01-04T09:21:31.187Z,2160
2017-01-04T09:22:12.398Z,2160
2017-01-04T09:22:52.862Z,2160
2017-01-04T09:23:33.360Z,2176
2017-01-04T09:24:13.848Z,2176
2017-01-04T09:24:54.335Z,2176
2017-01-04T09:25:34.827Z,2184
2017-01-04T09:26:15.313Z,2196
2017-01-04T09:26:55.894Z,2196
2017-01-04T09:27:36.402Z,2204
2017-01-04T09:28:16.876Z,2212
2017-01-04T09:28:57.350Z,2220
2017-01-04T09:29:37.827Z,2232
2017-01-04T09:30:18.305Z,2240
2017-01-04T09:30:58.788Z,2248
2017-01-04T09:31:39.258Z,2260
2017-01-04T09:32:19.803Z,2272
2017-01-04T09:33:00.284Z,2276
2017-01-04T09:33:40.757Z,2280
2017-01-04T09:34:21.233Z,2280
2017-01-04T09:35:01.727Z,2292
2017-01-04T09:35:42.214Z,2288
2017-01-04T09:36:22.738Z,2280
2017-01-04T09:37:03.211Z,2284
2017-01-04T09:37:43.670Z,2288
2017-01-04T09:38:24.187Z,2280
2017-01-04T09:39:04.674Z,2276
2017-01-04T09:39:45.198Z,2280
2017-01-04T09:40:25.664Z,2284
2017-01-04T09:41:06.184Z,2292
2017-01-04T09:41:46.655Z,2300
2017-01-04T09:42:27.216Z,2296
2017-01-04T09:43:07.697Z,2296
2017-01-04T09:43:48.189Z,2304
2017-01-04T09:44:28.752Z,2308
2017-01-04T09:45:09.210Z,2312
2017-01-04T09:45:49.719Z,2312
2017-01-04T09:46:30.239Z,2320
2017-01-04T09:47:10.840Z,2316
2017-01-04T09:47:52.146Z,2316
2017-01-04T09:48:32.960Z,2308
2017-01-04T09:49:13.706Z,2320
2017-01-04T09:49:54.235Z,2336
2017-01-04T09:50:34.744Z,2336